Little Rock, Arkansas
Current Conditions -  °F | °C
As of 11:53 PM on Wednesday 28 Jan 2015 (Local Time) from KLIT Reporting Station
Few Clouds Few Clouds  
Wind Chill: 14°   Ceiling: Unl
Heat Index: 14°   Visibility: 10mi
Dew Point:   Wind: 16mph
Humidity: 51%   Direction: 210°SSW
Pressure: 30.02"   Gusts: 25mph
Location:  34.75°N, 92.27°W
Report Text: KLIT 290553Z 21014G22KT 10SM FEW110 14/04 A3002 RMK AO2 SLP167 T01440044 10144 20111 401780017 56005
Loading
Personal Weather Stations






























Interactive Weather Map New forecast layout! Learn more

10-Day Weather Forecast

Advertisements
Track Severe Weather on mobile